createdAt,value
2018-12-24T00:00:36.869Z,0.50
2018-12-24T00:02:24.950Z,0.60
2018-12-24T00:04:12.663Z,0.80
2018-12-24T00:06:00.977Z,0.80
2018-12-24T00:07:48.551Z,0.70
2018-12-24T00:09:36.801Z,0.77
2018-12-24T00:11:24.426Z,0.80
2018-12-24T00:13:12.126Z,0.70
2018-12-24T00:15:00.576Z,0.70
2018-12-24T00:16:48.934Z,0.80
2018-12-24T00:18:37.446Z,0.60
2018-12-24T00:20:25.927Z,0.70
2018-12-24T00:22:14.091Z,0.80
2018-12-24T00:24:01.753Z,0.70
2018-12-24T00:25:50.046Z,0.80
2018-12-24T00:27:38.253Z,0.60
2018-12-24T00:29:26.670Z,0.80
2018-12-24T00:31:14.918Z,0.70
2018-12-24T00:33:02.680Z,0.60
2018-12-24T00:34:50.303Z,0.70
2018-12-24T00:36:37.840Z,0.53
2018-12-24T00:38:25.410Z,0.80
2018-12-24T00:40:13.065Z,0.90
2018-12-24T00:42:01.085Z,0.70
2018-12-24T00:43:49.010Z,0.60
2018-12-24T00:45:37.787Z,0.80
2018-12-24T00:47:25.401Z,0.60
2018-12-24T00:49:13.394Z,0.70
2018-12-24T00:51:02.099Z,0.70
2018-12-24T00:52:49.783Z,0.70
2018-12-24T00:54:37.319Z,0.57
2018-12-24T00:56:25.197Z,0.70
2018-12-24T00:58:12.791Z,0.70
2018-12-24T01:00:00.742Z,0.70
2018-12-24T01:01:48.992Z,0.67
2018-12-24T01:03:37.065Z,0.70
2018-12-24T01:05:24.996Z,0.50
2018-12-24T01:07:13.015Z,0.60
2018-12-24T01:09:00.764Z,0.60
2018-12-24T01:10:49.070Z,0.60
2018-12-24T01:12:36.858Z,0.60
2018-12-24T01:14:24.807Z,0.70
2018-12-24T01:16:12.357Z,0.80
2018-12-24T01:18:00.558Z,0.60
2018-12-24T01:19:48.797Z,0.57
2018-12-24T01:21:36.709Z,0.60
2018-12-24T01:23:24.967Z,0.60
2018-12-24T01:25:13.281Z,0.53
2018-12-24T01:27:01.572Z,0.57
2018-12-24T01:28:49.366Z,0.60
2018-12-24T01:30:37.343Z,0.63
2018-12-24T01:32:25.250Z,0.53
2018-12-24T01:34:13.226Z,0.60
2018-12-24T01:36:01.171Z,0.60
2018-12-24T01:37:48.900Z,0.43
2018-12-24T01:39:37.122Z,0.50
2018-12-24T01:41:24.905Z,0.60
2018-12-24T01:43:13.232Z,0.60
2018-12-24T01:45:01.433Z,0.50
2018-12-24T01:46:48.913Z,0.60
2018-12-24T01:48:36.973Z,0.60
2018-12-24T01:50:25.022Z,0.60
2018-12-24T01:52:12.539Z,0.60
2018-12-24T01:54:00.071Z,0.67
2018-12-24T01:55:48.102Z,0.50
2018-12-24T01:57:36.040Z,0.60
2018-12-24T01:59:24.396Z,0.50
2018-12-24T02:01:12.463Z,0.57
2018-12-24T02:03:00.905Z,0.57
2018-12-24T02:04:49.117Z,0.60
2018-12-24T02:06:36.815Z,0.57
2018-12-24T02:08:25.203Z,0.60
2018-12-24T02:10:13.147Z,0.60
2018-12-24T02:12:01.575Z,0.60
2018-12-24T02:13:49.312Z,0.60
2018-12-24T02:15:37.222Z,0.53
2018-12-24T02:17:25.494Z,0.60
2018-12-24T02:19:13.438Z,0.60
2018-12-24T02:21:01.066Z,0.60
2018-12-24T02:22:49.419Z,0.50
2018-12-24T02:24:36.876Z,0.60
2018-12-24T02:26:24.509Z,0.60
2018-12-24T02:28:12.097Z,0.67
2018-12-24T02:29:59.937Z,0.63
2018-12-24T02:31:47.597Z,0.60
2018-12-24T02:33:35.648Z,0.80
2018-12-24T02:37:00.590Z,0.70
2018-12-24T02:38:48.677Z,0.50
2018-12-24T02:40:36.350Z,0.50
2018-12-24T02:42:24.405Z,0.50
2018-12-24T02:44:12.791Z,0.50
2018-12-24T02:46:01.240Z,0.50
2018-12-24T02:47:48.942Z,0.60
2018-12-24T02:49:36.898Z,0.63
2018-12-24T02:51:25.279Z,0.60
2018-12-24T02:53:12.766Z,0.57
2018-12-24T02:55:00.980Z,0.60
2018-12-24T02:56:49.317Z,0.60
2018-12-24T02:58:37.315Z,0.60
2018-12-24T03:00:25.350Z,0.50
2018-12-24T03:02:13.480Z,0.70
2018-12-24T03:04:01.631Z,0.50
2018-12-24T03:05:49.498Z,0.60
2018-12-24T03:07:37.162Z,0.50
2018-12-24T03:09:25.044Z,0.60
2018-12-24T03:11:13.096Z,0.60
2018-12-24T03:13:02.704Z,0.60
2018-12-24T03:14:51.031Z,0.60
2018-12-24T03:16:39.451Z,0.60
2018-12-24T03:18:27.104Z,0.60
2018-12-24T03:20:14.605Z,0.60
2018-12-24T03:22:02.899Z,0.70
2018-12-24T03:23:50.626Z,0.67
2018-12-24T03:25:38.855Z,0.77
2018-12-24T03:27:26.984Z,0.80
2018-12-24T03:29:15.143Z,0.60
2018-12-24T03:31:03.519Z,0.60
2018-12-24T03:32:51.497Z,0.60
2018-12-24T03:34:39.075Z,0.60
2018-12-24T03:36:26.705Z,0.57
2018-12-24T03:38:14.461Z,0.63
2018-12-24T03:40:02.705Z,0.60
2018-12-24T03:41:50.514Z,0.63
2018-12-24T03:43:38.079Z,0.70
2018-12-24T03:45:26.396Z,0.80
2018-12-24T03:47:14.664Z,0.90
2018-12-24T03:49:02.182Z,0.80
2018-12-24T03:50:49.750Z,0.90
2018-12-24T03:52:37.271Z,1.17
2018-12-24T03:54:25.613Z,0.90
2018-12-24T03:56:13.122Z,0.90
2018-12-24T03:58:01.385Z,1.00
2018-12-24T03:59:49.080Z,1.20
2018-12-24T04:01:36.989Z,1.10
2018-12-24T04:03:24.622Z,1.10
2018-12-24T04:05:12.236Z,0.97
2018-12-24T04:07:00.060Z,1.10
2018-12-24T04:08:48.115Z,1.20
2018-12-24T04:10:36.339Z,1.17
2018-12-24T04:12:24.653Z,0.90
2018-12-24T04:14:12.565Z,0.97
2018-12-24T04:16:00.548Z,1.50
2018-12-24T04:17:48.191Z,1.10
2018-12-24T04:19:36.215Z,1.03
2018-12-24T04:21:24.261Z,1.00
2018-12-24T04:23:12.301Z,0.90
2018-12-24T04:24:59.921Z,1.00
2018-12-24T04:26:47.487Z,1.10
2018-12-24T04:28:35.282Z,1.30
2018-12-24T04:30:22.790Z,1.17
2018-12-24T04:32:10.944Z,0.90
2018-12-24T04:33:58.890Z,1.30
2018-12-24T04:35:46.587Z,0.97
2018-12-24T04:37:34.239Z,1.10
2018-12-24T04:39:21.972Z,0.90
2018-12-24T04:41:09.488Z,0.80
2018-12-24T04:42:57.540Z,1.03
2018-12-24T04:44:45.189Z,0.80
2018-12-24T04:46:33.557Z,0.87
2018-12-24T04:48:21.004Z,1.00
2018-12-24T04:50:08.838Z,0.90
2018-12-24T04:51:56.240Z,0.90
2018-12-24T04:53:44.524Z,0.90
2018-12-24T04:55:32.922Z,0.87
2018-12-24T04:57:21.144Z,0.90
2018-12-24T04:59:09.241Z,0.73
2018-12-24T05:00:56.880Z,0.90
2018-12-24T05:02:44.382Z,0.70
2018-12-24T05:04:32.249Z,0.87
2018-12-24T05:06:20.609Z,0.90
2018-12-24T05:08:08.838Z,0.90
2018-12-24T05:09:56.981Z,0.90
2018-12-24T05:11:45.296Z,0.80
2018-12-24T05:13:40.849Z,0.93
2018-12-24T05:15:23.599Z,0.90
2018-12-24T05:17:11.108Z,0.80
2018-12-24T05:18:59.188Z,0.80
2018-12-24T05:20:47.524Z,1.00
2018-12-24T05:22:35.927Z,0.90
2018-12-24T05:24:24.145Z,0.83
2018-12-24T05:26:12.323Z,0.80
2018-12-24T05:28:00.534Z,1.00
2018-12-24T05:29:48.472Z,0.90
2018-12-24T05:31:36.679Z,1.03
2018-12-24T05:33:24.868Z,0.90
2018-12-24T05:35:12.513Z,0.80
2018-12-24T05:37:00.357Z,0.90
2018-12-24T05:38:47.840Z,0.80
2018-12-24T05:40:36.204Z,0.90
2018-12-24T05:42:23.732Z,0.90
2018-12-24T05:44:11.674Z,0.93
2018-12-24T05:45:59.742Z,0.87
2018-12-24T05:47:47.616Z,0.87
2018-12-24T05:49:35.141Z,0.93
2018-12-24T05:51:23.114Z,0.97
2018-12-24T05:53:10.573Z,0.93
2018-12-24T05:54:58.853Z,0.90
2018-12-24T05:56:46.545Z,0.90
2018-12-24T05:58:34.954Z,0.90
2018-12-24T06:00:23.396Z,1.00
2018-12-24T06:02:11.038Z,0.80
2018-12-24T06:03:58.570Z,0.90
2018-12-24T06:05:46.132Z,1.00
2018-12-24T06:07:33.828Z,1.20
2018-12-24T06:09:21.383Z,1.00
2018-12-24T06:11:09.639Z,1.03
2018-12-24T06:12:57.970Z,1.00
2018-12-24T06:14:45.717Z,1.20
2018-12-24T06:16:34.020Z,0.97
2018-12-24T06:18:22.215Z,1.00
2018-12-24T06:20:09.860Z,0.97
2018-12-24T06:21:57.423Z,1.00
2018-12-24T06:23:45.336Z,0.80
2018-12-24T06:25:33.547Z,1.07
2018-12-24T06:27:21.053Z,1.00
2018-12-24T06:29:09.385Z,0.90
2018-12-24T06:30:57.192Z,0.90
2018-12-24T06:32:44.769Z,0.90
2018-12-24T06:34:32.226Z,1.10
2018-12-24T06:36:19.866Z,1.10
2018-12-24T06:38:07.517Z,1.20
2018-12-24T06:39:55.877Z,1.20
2018-12-24T06:41:43.698Z,1.10
2018-12-24T06:43:31.176Z,1.10
2018-12-24T06:45:18.749Z,1.17
2018-12-24T06:47:06.192Z,1.00
2018-12-24T06:48:54.090Z,0.90
2018-12-24T06:50:42.279Z,1.07
2018-12-24T06:52:30.223Z,0.97
2018-12-24T06:54:18.493Z,0.80
2018-12-24T06:56:06.625Z,1.00
2018-12-24T06:57:54.733Z,1.03
2018-12-24T06:59:42.890Z,1.10
2018-12-24T07:01:31.033Z,1.00
2018-12-24T07:03:18.782Z,0.93
2018-12-24T07:05:06.617Z,1.10
2018-12-24T07:06:54.242Z,0.80
2018-12-24T07:08:41.839Z,0.93
2018-12-24T07:10:29.942Z,1.07
2018-12-24T07:12:17.610Z,1.00
2018-12-24T07:14:05.176Z,1.10
2018-12-24T07:15:53.472Z,1.00
2018-12-24T07:17:41.004Z,1.20
2018-12-24T07:19:29.419Z,3.47
2018-12-24T07:21:17.285Z,1.67
2018-12-24T07:23:05.032Z,1.57
2018-12-24T07:24:52.656Z,1.40
2018-12-24T07:26:40.762Z,1.13
2018-12-24T07:28:28.318Z,0.90
2018-12-24T07:30:16.210Z,0.87
2018-12-24T07:32:04.405Z,1.07
2018-12-24T07:33:52.672Z,1.03
2018-12-24T07:35:40.790Z,1.00
2018-12-24T07:37:28.454Z,1.00
2018-12-24T07:39:16.569Z,1.00
2018-12-24T07:41:04.053Z,0.90
2018-12-24T07:42:52.071Z,1.00
2018-12-24T07:44:39.865Z,1.00
2018-12-24T07:46:27.921Z,0.90
2018-12-24T07:48:16.147Z,1.00
2018-12-24T07:50:04.506Z,1.30
2018-12-24T07:51:52.077Z,1.10
2018-12-24T07:53:40.379Z,1.20
2018-12-24T07:55:27.996Z,1.20
2018-12-24T07:57:16.391Z,1.40
2018-12-24T07:59:04.401Z,1.17
2018-12-24T08:00:52.485Z,1.20
2018-12-24T08:02:40.185Z,1.40
2018-12-24T08:04:28.895Z,1.57
2018-12-24T08:06:17.095Z,1.43
2018-12-24T08:08:05.198Z,1.60
2018-12-24T08:09:52.818Z,1.47
2018-12-24T08:11:41.435Z,1.57
2018-12-24T08:13:29.033Z,1.60
2018-12-24T08:15:16.571Z,1.70
2018-12-24T08:17:04.843Z,1.90
2018-12-24T08:18:53.067Z,1.67
2018-12-24T08:20:41.899Z,1.67
2018-12-24T08:22:29.586Z,1.40
2018-12-24T08:24:17.766Z,1.83
2018-12-24T08:26:05.420Z,1.90
2018-12-24T08:27:53.190Z,1.80
2018-12-24T08:29:41.597Z,1.77
2018-12-24T08:31:29.363Z,1.83
2018-12-24T08:33:17.476Z,1.60
2018-12-24T08:35:04.981Z,1.67
2018-12-24T08:36:53.425Z,1.80
2018-12-24T08:38:41.407Z,1.40
2018-12-24T08:40:29.664Z,1.63
2018-12-24T08:42:17.978Z,1.57
2018-12-24T08:44:06.518Z,1.80
2018-12-24T08:45:54.871Z,1.77
2018-12-24T08:47:42.564Z,1.60
2018-12-24T08:49:30.034Z,1.83
2018-12-24T08:51:17.951Z,1.70
2018-12-24T08:53:05.492Z,3.03
2018-12-24T08:54:53.131Z,1.40
2018-12-24T08:56:41.453Z,2.13
2018-12-24T08:58:29.658Z,2.10
2018-12-24T09:00:17.257Z,2.00
2018-12-24T09:02:04.916Z,2.00
2018-12-24T09:03:53.406Z,2.10
2018-12-24T09:05:40.992Z,2.10
2018-12-24T09:07:29.127Z,2.30
2018-12-24T09:09:18.922Z,1.90
2018-12-24T09:11:06.730Z,1.90
2018-12-24T09:12:54.486Z,2.10
2018-12-24T09:14:50.060Z,1.90
2018-12-24T09:16:32.032Z,2.10
2018-12-24T09:18:20.220Z,2.53
2018-12-24T09:20:08.511Z,2.13
2018-12-24T09:21:56.062Z,2.20
2018-12-24T09:23:43.935Z,2.27
2018-12-24T09:25:32.395Z,2.40
2018-12-24T09:27:20.253Z,1.93
2018-12-24T09:29:08.412Z,1.80
2018-12-24T09:30:56.310Z,2.40
2018-12-24T09:32:43.965Z,2.23
2018-12-24T09:34:31.913Z,2.13
2018-12-24T09:36:19.390Z,2.30
2018-12-24T09:38:07.687Z,2.10
2018-12-24T09:39:55.156Z,2.00
2018-12-24T09:41:42.677Z,2.10
2018-12-24T09:43:31.117Z,1.93
2018-12-24T09:45:18.801Z,2.10
2018-12-24T09:47:06.293Z,2.20
2018-12-24T09:48:54.610Z,2.30
2018-12-24T09:50:42.815Z,2.67
2018-12-24T09:52:30.906Z,2.37
2018-12-24T09:54:19.262Z,2.63
2018-12-24T09:56:07.421Z,2.20
2018-12-24T09:57:55.684Z,2.40
2018-12-24T09:59:43.238Z,2.17
2018-12-24T10:01:30.673Z,2.23
2018-12-24T10:03:18.538Z,2.00
2018-12-24T10:05:06.770Z,2.20
2018-12-24T10:06:54.256Z,2.13
2018-12-24T10:08:41.760Z,2.33
2018-12-24T10:10:29.244Z,2.20
2018-12-24T10:12:17.224Z,1.90
2018-12-24T10:14:04.814Z,2.33
2018-12-24T10:15:53.186Z,1.77
2018-12-24T10:17:41.659Z,2.20
2018-12-24T10:19:30.035Z,1.73
2018-12-24T10:21:17.813Z,2.00
2018-12-24T10:23:06.157Z,2.00
2018-12-24T10:24:54.129Z,1.80
2018-12-24T10:26:42.348Z,2.13
2018-12-24T10:28:30.367Z,2.20
2018-12-24T10:30:18.692Z,1.80
2018-12-24T10:32:06.491Z,2.00
2018-12-24T10:33:54.910Z,2.07
2018-12-24T10:35:43.000Z,2.00
2018-12-24T10:37:30.918Z,1.73
2018-12-24T10:39:19.153Z,2.57
2018-12-24T10:41:07.603Z,2.10
2018-12-24T10:42:55.145Z,2.23
2018-12-24T10:44:43.096Z,1.80
2018-12-24T10:46:30.694Z,1.80
2018-12-24T10:48:18.708Z,1.90
2018-12-24T10:50:06.258Z,1.83
2018-12-24T10:51:53.784Z,2.03
2018-12-24T10:53:42.052Z,1.70
2018-12-24T10:55:30.022Z,1.80
2018-12-24T10:57:17.535Z,1.73
2018-12-24T10:59:05.598Z,1.60
2018-12-24T11:00:53.636Z,1.63
2018-12-24T11:02:41.117Z,1.80
2018-12-24T11:04:28.975Z,1.50
2018-12-24T11:06:16.927Z,1.90
2018-12-24T11:08:04.647Z,1.60
2018-12-24T11:09:52.941Z,1.60
2018-12-24T11:11:40.999Z,1.70
2018-12-24T11:13:29.498Z,1.50
2018-12-24T11:15:24.858Z,1.70
2018-12-24T11:17:07.382Z,1.90
2018-12-24T11:18:55.704Z,1.80
2018-12-24T11:20:43.451Z,1.97
2018-12-24T11:22:30.924Z,2.00
2018-12-24T11:24:19.106Z,1.77
2018-12-24T11:26:06.747Z,1.87
2018-12-24T11:27:55.022Z,1.93
2018-12-24T11:29:43.193Z,1.77
2018-12-24T11:31:30.930Z,2.10
2018-12-24T11:33:18.699Z,1.97
2018-12-24T11:35:06.358Z,1.90
2018-12-24T11:36:54.294Z,1.90
2018-12-24T11:38:42.342Z,2.27
2018-12-24T11:40:30.591Z,1.60
2018-12-24T11:42:18.799Z,2.50
2018-12-24T11:44:06.553Z,1.77
2018-12-24T11:45:54.586Z,1.60
2018-12-24T11:47:42.149Z,1.90
2018-12-24T11:49:32.642Z,1.63
2018-12-24T11:51:20.154Z,1.57
2018-12-24T11:53:07.954Z,1.50
2018-12-24T11:54:55.748Z,1.40
2018-12-24T11:56:44.259Z,2.00
2018-12-24T11:58:31.834Z,1.83
2018-12-24T12:00:19.291Z,1.40
2018-12-24T12:02:10.022Z,1.70
2018-12-24T12:03:57.154Z,1.60
2018-12-24T12:05:45.462Z,1.60
2018-12-24T12:07:33.545Z,1.63
2018-12-24T12:09:21.578Z,1.60
2018-12-24T12:11:08.995Z,1.60
2018-12-24T12:12:56.774Z,1.60
2018-12-24T12:14:44.222Z,1.90
2018-12-24T12:16:32.551Z,2.17
2018-12-24T12:18:20.919Z,1.73
2018-12-24T12:20:09.338Z,4.97
2018-12-24T12:21:57.061Z,1.57
2018-12-24T12:23:44.669Z,1.60
2018-12-24T12:25:32.635Z,1.60
2018-12-24T12:27:20.791Z,1.70
2018-12-24T12:29:08.480Z,1.63
2018-12-24T12:30:56.162Z,1.70
2018-12-24T12:32:44.490Z,1.60
2018-12-24T12:34:32.794Z,1.63
2018-12-24T12:36:21.161Z,1.43
2018-12-24T12:38:09.246Z,1.70
2018-12-24T12:39:56.691Z,1.60
2018-12-24T12:41:45.200Z,1.80
2018-12-24T12:43:33.669Z,1.60
2018-12-24T12:45:21.695Z,1.73
2018-12-24T12:47:09.954Z,1.20
2018-12-24T12:48:57.743Z,1.60
2018-12-24T12:50:45.364Z,1.50
2018-12-24T12:52:33.786Z,1.60
2018-12-24T12:54:21.488Z,1.30
2018-12-24T12:56:09.567Z,1.40
2018-12-24T12:57:57.321Z,1.47
2018-12-24T12:59:45.475Z,1.30
2018-12-24T13:01:33.882Z,1.50
2018-12-24T13:03:22.068Z,1.83
2018-12-24T13:05:09.745Z,1.57
2018-12-24T13:06:57.658Z,1.37
2018-12-24T13:08:45.282Z,1.50
2018-12-24T13:10:33.260Z,1.53
2018-12-24T13:12:21.607Z,1.50
2018-12-24T13:14:09.542Z,1.60
2018-12-24T13:15:59.669Z,1.40
2018-12-24T13:17:46.981Z,1.50
2018-12-24T13:19:34.559Z,1.47
2018-12-24T13:21:22.243Z,1.70
2018-12-24T13:23:10.486Z,1.70
2018-12-24T13:24:58.104Z,1.30
2018-12-24T13:26:46.017Z,1.30
2018-12-24T13:28:33.814Z,1.53
2018-12-24T13:30:21.336Z,1.87
2018-12-24T13:32:08.902Z,2.10
2018-12-24T13:33:57.362Z,1.60
2018-12-24T13:35:46.051Z,1.70
2018-12-24T13:37:34.297Z,1.30
2018-12-24T13:39:22.441Z,1.60
2018-12-24T13:41:10.271Z,1.60
2018-12-24T13:42:58.653Z,1.83
2018-12-24T13:44:46.575Z,1.40
2018-12-24T13:46:34.429Z,1.70
2018-12-24T13:48:22.266Z,1.43
2018-12-24T13:50:10.072Z,2.23
2018-12-24T13:51:58.026Z,1.83
2018-12-24T13:53:45.470Z,1.50
2018-12-24T13:55:33.000Z,1.43
2018-12-24T13:57:21.169Z,1.60
2018-12-24T13:59:09.550Z,1.20
2018-12-24T14:00:57.953Z,1.60
2018-12-24T14:02:46.298Z,1.70
2018-12-24T14:04:33.967Z,1.60
2018-12-24T14:06:22.076Z,1.87
2018-12-24T14:08:10.220Z,1.50
2018-12-24T14:09:58.618Z,1.40
2018-12-24T14:11:46.910Z,1.53
2018-12-24T14:13:34.493Z,1.47
2018-12-24T14:15:22.905Z,1.10
2018-12-24T14:17:10.647Z,1.40
2018-12-24T14:18:58.997Z,1.30
2018-12-24T14:20:47.112Z,1.37
2018-12-24T14:22:35.392Z,1.23
2018-12-24T14:24:23.466Z,1.30
2018-12-24T14:26:11.866Z,1.10
2018-12-24T14:28:00.393Z,1.30
2018-12-24T14:29:47.971Z,1.00
2018-12-24T14:31:36.137Z,1.10
2018-12-24T14:33:24.477Z,1.30
2018-12-24T14:35:12.694Z,1.20
2018-12-24T14:37:01.146Z,1.23
2018-12-24T14:38:48.879Z,1.20
2018-12-24T14:40:36.376Z,1.40
2018-12-24T14:42:24.590Z,1.30
2018-12-24T14:44:12.882Z,1.50
2018-12-24T14:46:00.652Z,1.20
2018-12-24T14:47:48.781Z,1.57
2018-12-24T14:49:36.502Z,1.40
2018-12-24T14:51:24.801Z,1.30
2018-12-24T14:53:12.244Z,1.67
2018-12-24T14:55:00.238Z,1.57
2018-12-24T14:56:47.922Z,1.60
2018-12-24T14:58:35.926Z,1.63
2018-12-24T15:00:12.084Z,1.43
2018-12-24T15:02:07.442Z,2.27
2018-12-24T15:03:55.314Z,1.97
2018-12-24T15:05:43.538Z,1.70
2018-12-24T15:07:31.120Z,1.60
2018-12-24T15:09:18.608Z,1.80
2018-12-24T15:11:06.766Z,2.00
2018-12-24T15:12:54.721Z,1.93
2018-12-24T15:14:42.657Z,1.50
2018-12-24T15:16:34.829Z,2.07
2018-12-24T15:18:42.586Z,1.60
2018-12-24T15:20:30.567Z,1.60
2018-12-24T15:22:20.883Z,2.00
2018-12-24T15:24:12.478Z,1.70
2018-12-24T15:26:03.854Z,2.10
2018-12-24T15:27:58.560Z,1.60
2018-12-24T15:30:07.929Z,1.60
2018-12-24T15:31:58.261Z,1.53
2018-12-24T15:33:47.580Z,2.00
2018-12-24T15:35:36.156Z,1.70
2018-12-24T15:39:13.889Z,2.07
2018-12-24T15:41:02.999Z,1.83
2018-12-24T15:42:54.392Z,2.00
2018-12-24T15:44:42.844Z,2.00
2018-12-24T15:46:30.943Z,2.10
2018-12-24T15:48:19.028Z,1.70
2018-12-24T15:50:06.876Z,2.13
2018-12-24T15:51:56.907Z,1.63
2018-12-24T15:53:45.694Z,1.93
2018-12-24T15:55:34.787Z,1.80
2018-12-24T15:57:23.004Z,1.77
2018-12-24T15:59:11.244Z,1.60
2018-12-24T16:00:59.389Z,1.70
2018-12-24T16:02:47.517Z,1.60
2018-12-24T16:04:36.603Z,1.50
2018-12-24T16:06:24.554Z,1.63
2018-12-24T16:08:13.194Z,1.83
2018-12-24T16:10:03.087Z,1.70
2018-12-24T16:11:50.866Z,1.80
2018-12-24T16:13:40.979Z,1.90
2018-12-24T16:15:32.388Z,1.87
2018-12-24T16:17:41.951Z,1.80
2018-12-24T16:19:29.873Z,1.90
2018-12-24T16:21:17.966Z,2.10
2018-12-24T16:23:06.126Z,1.87
2018-12-24T16:24:53.646Z,2.03
2018-12-24T16:26:41.413Z,2.03
2018-12-24T16:28:29.626Z,2.10
2018-12-24T16:30:17.538Z,2.20
2018-12-24T16:32:05.606Z,2.03
2018-12-24T16:33:53.637Z,2.20
2018-12-24T16:35:41.204Z,2.10
2018-12-24T16:37:28.767Z,1.97
2018-12-24T16:39:16.411Z,2.20
2018-12-24T16:41:04.499Z,2.20
2018-12-24T16:42:52.120Z,2.10
2018-12-24T16:44:39.767Z,2.03
2018-12-24T16:46:27.373Z,2.30
2018-12-24T16:48:16.016Z,2.60
2018-12-24T16:50:04.593Z,2.50
2018-12-24T16:51:53.008Z,2.23
2018-12-24T16:53:41.208Z,2.60
2018-12-24T16:55:29.122Z,2.53
2018-12-24T16:57:17.479Z,2.17
2018-12-24T16:59:05.114Z,2.60
2018-12-24T17:00:53.016Z,2.70
2018-12-24T17:02:40.677Z,2.90
2018-12-24T17:04:29.161Z,2.30
2018-12-24T17:06:17.646Z,2.87
2018-12-24T17:08:05.744Z,2.67
2018-12-24T17:09:53.366Z,2.83
2018-12-24T17:11:41.743Z,2.73
2018-12-24T17:13:29.352Z,2.47
2018-12-24T17:15:17.902Z,3.00
2018-12-24T17:17:07.835Z,2.60
2018-12-24T17:18:55.440Z,3.20
2018-12-24T17:20:43.845Z,2.53
2018-12-24T17:22:31.305Z,2.97
2018-12-24T17:24:19.535Z,2.57
2018-12-24T17:26:07.183Z,2.67
2018-12-24T17:27:55.622Z,2.80
2018-12-24T17:29:44.105Z,2.80
2018-12-24T17:31:32.055Z,2.63
2018-12-24T17:33:19.936Z,2.30
2018-12-24T17:35:07.901Z,3.10
2018-12-24T17:36:55.401Z,3.87
2018-12-24T17:38:44.077Z,3.13
2018-12-24T17:40:31.655Z,2.70
2018-12-24T17:42:19.246Z,2.70
2018-12-24T17:44:07.673Z,2.40
2018-12-24T17:45:55.452Z,2.83
2018-12-24T17:47:43.408Z,2.23
2018-12-24T17:49:31.012Z,2.83
2018-12-24T17:51:18.913Z,2.40
2018-12-24T17:53:07.394Z,2.23
2018-12-24T17:54:55.001Z,3.83
2018-12-24T17:56:42.568Z,3.10
2018-12-24T18:00:26.559Z,3.53
2018-12-24T18:02:14.584Z,2.90
2018-12-24T18:04:02.397Z,2.53
2018-12-24T18:05:50.995Z,2.30
2018-12-24T18:07:41.592Z,2.40
2018-12-24T18:09:30.050Z,2.47
2018-12-24T18:11:18.081Z,2.37
2018-12-24T18:13:06.383Z,2.30
2018-12-24T18:14:54.019Z,2.50
2018-12-24T18:16:42.717Z,2.50
2018-12-24T18:18:30.731Z,2.90
2018-12-24T18:20:19.332Z,3.20
2018-12-24T18:22:07.142Z,2.50
2018-12-24T18:23:55.374Z,2.50
2018-12-24T18:25:43.350Z,2.67
2018-12-24T18:27:31.486Z,2.20
2018-12-24T18:29:19.862Z,2.50
2018-12-24T18:31:08.427Z,2.30
2018-12-24T18:32:56.051Z,2.30
2018-12-24T18:34:44.233Z,2.37
2018-12-24T18:36:32.401Z,2.10
2018-12-24T18:38:20.049Z,3.00
2018-12-24T18:40:07.727Z,2.93
2018-12-24T18:41:56.005Z,2.70
2018-12-24T18:43:44.010Z,2.40
2018-12-24T18:45:32.362Z,2.40
2018-12-24T18:47:21.128Z,3.03
2018-12-24T18:49:09.266Z,2.90
2018-12-24T18:50:57.110Z,2.87
2018-12-24T18:52:45.067Z,3.00
2018-12-24T18:54:33.540Z,2.80
2018-12-24T18:56:21.641Z,2.77
2018-12-24T18:58:10.227Z,2.63
2018-12-24T18:59:57.917Z,2.60
2018-12-24T19:01:45.859Z,2.90
2018-12-24T19:03:34.359Z,3.37
2018-12-24T19:05:24.937Z,2.83
2018-12-24T19:07:12.698Z,3.07
2018-12-24T19:09:00.192Z,3.50
2018-12-24T19:10:50.039Z,3.33
2018-12-24T19:12:38.415Z,3.23
2018-12-24T19:14:26.789Z,3.00
2018-12-24T19:16:15.126Z,3.20
2018-12-24T19:18:02.969Z,3.07
2018-12-24T19:19:50.953Z,3.53
2018-12-24T19:21:43.906Z,3.40
2018-12-24T19:23:28.543Z,2.80
2018-12-24T19:25:16.462Z,3.50
2018-12-24T19:27:04.028Z,3.40
2018-12-24T19:28:51.798Z,4.43
2018-12-24T19:30:39.712Z,3.40
2018-12-24T19:32:28.003Z,3.87
2018-12-24T19:34:15.469Z,3.37
2018-12-24T19:36:02.954Z,3.80
2018-12-24T19:37:50.889Z,3.57
2018-12-24T19:39:38.973Z,3.57
2018-12-24T19:41:27.258Z,4.20
2018-12-24T19:43:14.913Z,3.57
2018-12-24T19:45:02.546Z,3.40
2018-12-24T19:46:51.182Z,4.00
2018-12-24T19:48:38.643Z,3.70
2018-12-24T19:50:26.946Z,4.10
2018-12-24T19:52:15.290Z,4.27
2018-12-24T19:54:03.508Z,4.30
2018-12-24T19:55:51.880Z,3.83
2018-12-24T19:57:40.006Z,4.40
2018-12-24T19:59:27.558Z,4.10
2018-12-24T20:01:15.734Z,4.20
2018-12-24T20:03:04.000Z,4.00
2018-12-24T20:04:51.515Z,4.10
2018-12-24T20:06:39.749Z,4.33
2018-12-24T20:08:27.189Z,4.47
2018-12-24T20:10:15.091Z,4.50
2018-12-24T20:12:02.983Z,3.50
2018-12-24T20:13:51.214Z,4.60
2018-12-24T20:15:39.318Z,4.43
2018-12-24T20:17:27.522Z,4.53
2018-12-24T20:19:15.186Z,4.30
2018-12-24T20:21:03.032Z,4.30
2018-12-24T20:22:51.279Z,4.70
2018-12-24T20:24:39.528Z,4.50
2018-12-24T20:26:27.237Z,4.67
2018-12-24T20:28:15.094Z,4.80
2018-12-24T20:30:02.541Z,4.90
2018-12-24T20:31:50.198Z,4.20
2018-12-24T20:33:38.448Z,4.20
2018-12-24T20:35:26.454Z,4.83
2018-12-24T20:37:14.345Z,4.40
2018-12-24T20:39:02.223Z,4.60
2018-12-24T20:40:50.453Z,4.93
2018-12-24T20:42:38.728Z,5.10
2018-12-24T20:44:27.295Z,4.70
2018-12-24T20:46:14.813Z,4.00
2018-12-24T20:48:06.668Z,4.07
2018-12-24T20:49:52.622Z,3.83
2018-12-24T20:51:41.081Z,4.30
2018-12-24T20:53:28.962Z,4.00
2018-12-24T20:55:17.016Z,3.70
2018-12-24T20:57:04.903Z,4.30
2018-12-24T20:58:52.747Z,4.30
2018-12-24T21:00:40.801Z,4.27
2018-12-24T21:02:28.782Z,4.70
2018-12-24T21:04:16.464Z,4.30
2018-12-24T21:06:04.738Z,4.03
2018-12-24T21:07:52.917Z,4.40
2018-12-24T21:09:41.197Z,3.73
2018-12-24T21:11:28.663Z,4.03
2018-12-24T21:13:16.424Z,4.40
2018-12-24T21:15:04.923Z,3.73
2018-12-24T21:16:53.049Z,4.27
2018-12-24T21:18:41.664Z,4.57
2018-12-24T21:20:30.148Z,3.80
2018-12-24T21:22:18.174Z,4.30
2018-12-24T21:24:06.690Z,4.70
2018-12-24T21:25:54.265Z,4.37
2018-12-24T21:27:41.896Z,4.40
2018-12-24T21:29:30.255Z,4.33
2018-12-24T21:31:17.931Z,4.53
2018-12-24T21:33:05.439Z,4.50
2018-12-24T21:34:53.885Z,4.53
2018-12-24T21:36:41.901Z,4.53
2018-12-24T21:38:29.757Z,4.33
2018-12-24T21:40:17.299Z,5.90
2018-12-24T21:42:05.680Z,4.97
2018-12-24T21:43:53.660Z,5.20
2018-12-24T21:45:42.082Z,4.87
2018-12-24T21:47:29.618Z,5.03
2018-12-24T21:49:17.404Z,5.73
2018-12-24T21:51:05.554Z,5.23
2018-12-24T21:52:53.433Z,5.17
2018-12-24T21:54:41.697Z,5.17
2018-12-24T21:56:29.137Z,6.13
2018-12-24T21:58:17.501Z,5.33
2018-12-24T22:00:05.024Z,5.23
2018-12-24T22:01:54.213Z,7.30
2018-12-24T22:03:42.613Z,5.33
2018-12-24T22:05:30.024Z,5.23
2018-12-24T22:07:17.851Z,5.87
2018-12-24T22:09:06.116Z,6.13
2018-12-24T22:10:54.090Z,6.80
2018-12-24T22:12:42.374Z,5.93
2018-12-24T22:14:30.645Z,6.53
2018-12-24T22:16:18.148Z,6.00
2018-12-24T22:18:06.076Z,6.17
2018-12-24T22:19:53.691Z,5.93
2018-12-24T22:21:41.413Z,6.53
2018-12-24T22:23:29.910Z,5.33
2018-12-24T22:25:17.991Z,6.70
2018-12-24T22:27:05.685Z,5.93
2018-12-24T22:28:53.210Z,5.80
2018-12-24T22:30:40.874Z,5.97
2018-12-24T22:32:28.372Z,5.47
2018-12-24T22:34:15.982Z,5.83
2018-12-24T22:36:03.446Z,5.90
2018-12-24T22:37:51.806Z,5.77
2018-12-24T22:39:39.805Z,6.90
2018-12-24T22:41:28.270Z,6.33
2018-12-24T22:43:16.527Z,6.10
2018-12-24T22:45:04.643Z,6.10
2018-12-24T22:46:52.129Z,6.37
2018-12-24T22:48:40.870Z,6.30
2018-12-24T22:50:29.390Z,6.13
2018-12-24T22:52:17.398Z,6.60
2018-12-24T22:54:05.547Z,6.73
2018-12-24T22:55:53.638Z,6.97
2018-12-24T22:57:41.910Z,6.83
2018-12-24T22:59:30.321Z,5.97
2018-12-24T23:01:17.899Z,6.53
2018-12-24T23:03:06.150Z,6.87
2018-12-24T23:04:53.797Z,7.60
2018-12-24T23:06:41.717Z,6.97
2018-12-24T23:08:29.331Z,5.80
2018-12-24T23:10:17.866Z,8.47
2018-12-24T23:12:05.488Z,8.63
2018-12-24T23:13:53.696Z,7.00
2018-12-24T23:15:41.949Z,7.53
2018-12-24T23:17:30.011Z,7.67
2018-12-24T23:19:18.119Z,6.77
2018-12-24T23:21:06.427Z,7.70
2018-12-24T23:22:54.300Z,5.50
2018-12-24T23:24:42.097Z,7.10
2018-12-24T23:26:29.988Z,6.73
2018-12-24T23:28:17.877Z,7.33
2018-12-24T23:30:05.463Z,7.00
2018-12-24T23:31:52.963Z,6.73
2018-12-24T23:33:41.153Z,6.73
2018-12-24T23:35:28.675Z,6.00
2018-12-24T23:37:17.019Z,6.90
2018-12-24T23:39:05.280Z,7.03
2018-12-24T23:40:52.856Z,6.07
2018-12-24T23:42:41.305Z,6.50
2018-12-24T23:44:29.082Z,5.80
2018-12-24T23:46:17.370Z,6.87
2018-12-24T23:48:05.222Z,6.30
2018-12-24T23:49:52.928Z,6.97
2018-12-24T23:51:40.522Z,6.90
2018-12-24T23:53:28.634Z,6.93
2018-12-24T23:55:16.174Z,6.87
2018-12-24T23:57:04.399Z,6.80
2018-12-24T23:58:52.698Z,7.27
